Flight Track Log - Related Links

Times and Time Zones

All times are in EDT time to prevent confusion due to time zone crossing. See the 9M-MNB flight status page for this flight to view local times or setup timezone preferences in your user account.

Time Position Orientation Groundspeed Altitude Reporting Facility
EDT Latitude Longitude Course Direction KTS MPH feet Rate Location/Type
Thu 12:53:08 PM 2.9170 101.5940 320° Northwest 266 306 4,500  Level FlightAware
Thu 12:53:28 PM 2.9350 101.5780 318° Northwest 269 310 5,200 1,920 Climbing FlightAware
Thu 12:53:58 PM 2.9600 101.5570 320° Northwest 270 311 6,100 1,900 Climbing FlightAware
Thu 12:54:28 PM 2.9900 101.5320 320° Northwest 270 311 7,100 1,855 Climbing FlightAware
Thu 12:54:53 PM 3.0140 101.5130 322° Northwest 285 328 7,800 1,855 Climbing FlightAware
Thu 12:55:23 PM 3.0460 101.4910 326° Northwest 287 330 8,800 2,073 Climbing FlightAware
Thu 12:55:48 PM 3.0760 101.4700 325° Northwest 293 337 9,700 1,714 Climbing FlightAware
Thu 12:56:33 PM 3.1330 101.4310 326° Northwest 318 366 10,800 1,011 Climbing FlightAware
Thu 12:57:23 PM 3.1990 101.3870 326° Northwest 358 412 11,300 600 Climbing FlightAware
Thu 12:58:13 PM 3.2640 101.3300 319° Northwest 394 453 11,800 1,074 Climbing FlightAware
Thu 12:58:58 PM 3.3250 101.2720 316° Northwest 401 461 13,000 1,482 Climbing FlightAware
Thu 12:59:38 PM 3.3790 101.2210 317° Northwest 410 472 13,900 1,453 Climbing FlightAware
Thu 01:00:33 PM 3.4550 101.1490 317° Northwest 419 482 15,300 1,300 Climbing FlightAware
Thu 01:01:38 PM 3.5420 101.0660 316° Northwest 434 499 16,500 1,200 Climbing FlightAware
Thu 01:02:58 PM 3.6890 100.9760 329° Northwest 447 514 18,200 1,108 Climbing FlightAware
Thu 01:03:48 PM 3.7720 100.9380 335° Northwest 454 522 18,900 1,011 Climbing FlightAware
Thu 01:04:33 PM 3.8660 100.8960 336° Northwest 460 529 19,800 780 Climbing FlightAware
Thu 01:05:28 PM 3.9640 100.8510 335° Northwest 465 535 20,200 733 Climbing FlightAware
Thu 01:06:03 PM 4.0450 100.8160 337° Northwest 478 550 20,900 1,059 Climbing FlightAware
Thu 01:06:53 PM 4.1440 100.7710 336° Northwest 487 560 21,700 884 Climbing FlightAware
Thu 01:07:38 PM 4.2370 100.7290 336° Northwest 493 567 22,300 847 Climbing FlightAware
Thu 01:08:18 PM 4.3250 100.6900 336° Northwest 494 568 22,900 1,125 Climbing FlightAware
Thu 01:08:58 PM 4.4060 100.6540 336° Northwest 491 565 23,800 1,059 Climbing FlightAware
Thu 01:09:43 PM 4.5020 100.6100 335° Northwest 495 570 24,400 776 Climbing FlightAware
Thu 01:10:23 PM 4.5850 100.5730 336° Northwest 498 573 24,900 776 Climbing FlightAware
Thu 01:11:08 PM 4.6760 100.5320 336° Northwest 500 575 25,500 706 Climbing FlightAware
Thu 01:11:48 PM 4.7680 100.4910 336° Northwest 506 582 25,900 675 Climbing FlightAware
Thu 01:12:28 PM 4.8530 100.4530 336° Northwest 508 585 26,400 918 Climbing FlightAware
Thu 01:13:13 PM 4.9490 100.4090 335° Northwest 502 578 27,200 776 Climbing FlightAware
Thu 01:13:53 PM 5.0340 100.3710 336° Northwest 509 586 27,500 450 Climbing FlightAware
Thu 01:14:33 PM 5.1220 100.3310 336° Northwest 514 592 27,800 353 Climbing FlightAware
Thu 01:15:18 PM 5.2140 100.2800 331° Northwest 516 594 28,000 141 Climbing FlightAware
Thu 01:15:58 PM 5.2920 100.2210 323° Northwest 517 595 28,000  Level FlightAware
Thu 01:16:43 PM 5.3650 100.1470 315° West 520 598 28,000  Level FlightAware
Thu 01:17:23 PM 5.4270 100.0680 308° West 521 600 28,000  Level FlightAware
Thu 01:18:03 PM 5.4860 99.9910 308° West 522 601 28,000  Level FlightAware
Thu 01:18:48 PM 5.5580 99.9080 311° West 521 600 28,000  Level FlightAware
Thu 01:19:28 PM 5.6320 99.8500 322° Northwest 521 600 28,000 282 Level FlightAware
Thu 01:20:13 PM 5.7220 99.7830 323° Northwest 524 603 28,400 424 Climbing FlightAware
Thu 01:20:53 PM 5.8010 99.7250 324° Northwest 529 609 28,600 450 Climbing FlightAware
Thu 01:21:33 PM 5.8800 99.6660 323° Northwest 530 610 29,000 706 Climbing FlightAware
Thu 01:22:18 PM 5.9690 99.6020 324° Northwest 526 605 29,600 750 Climbing FlightAware
Thu 01:22:53 PM 6.0380 99.5510 324° Northwest 527 606 30,000 600 Climbing FlightAware
Thu 01:23:38 PM 6.1200 99.4910 324° Northwest 529 609 30,400 353 Climbing FlightAware
Thu 01:24:18 PM 6.1980 99.4320 323° Northwest 528 608 30,500 75 Climbing FlightAware
Thu 01:24:58 PM 6.2650 99.3820 323° Northwest 528 608 30,500 900 Level FlightAware
Thu 01:25:38 PM 6.3590 99.3190 326° Northwest 529 609 31,700 847 Climbing FlightAware
Thu 01:26:23 PM 6.4430 99.2640 327° Northwest 529 609 31,700  Level FlightAware
Thu 01:27:13 PM 6.5300 99.2070 327° Northwest 529 609 31,700  Level FlightAware
Thu 01:27:53 PM 6.6000 99.1620 327° Northwest 529 609 31,700  Level FlightAware
Thu 01:28:33 PM 6.6700 99.1160 327° Northwest 529 609 31,700  Level FlightAware
Thu 01:29:13 PM 6.7400 99.0700 327° Northwest 529 609 31,700  Level FlightAware
Thu 01:29:53 PM 6.8100 99.0250 327° Northwest 529 609 31,700  Level FlightAware
Thu 01:30:43 PM 6.8970 98.9680 327° Northwest 529 609 31,700  Level FlightAware
Thu 01:31:23 PM 6.9670 98.9220 327° Northwest 529 609 31,700  Level FlightAware
Thu 01:32:03 PM 7.0360 98.8760 327° Northwest 529 609 31,700  Level FlightAware
Thu 01:32:43 PM 7.1060 98.8310 327° Northwest 529 609 31,700 1,564 Level FlightAware
Thu 01:34:48 PM 7.5160 98.6700 339° North 522 601 36,000 846 Climbing FlightAware
Thu 01:37:00 PM 7.7244 98.4889 319° Northwest  Level Estimated
Thu 01:37:48 PM 7.8170 98.3590 319° Northwest 521 600 36,000  Level FlightAware
Thu 01:40:00 PM 8.0253 98.1776 319° Northwest  Level Estimated
Thu 01:41:00 PM 8.1200 98.0951 319° Northwest  Level Estimated
Thu 01:42:00 PM 8.2146 98.0126 319° Northwest  Level Estimated
Thu 01:43:00 PM 8.3092 97.9300 319° Northwest  Level Estimated
Thu 01:44:00 PM 8.4038 97.8473 319° Northwest  Level Estimated
Thu 01:44:53 PM 8.3110 97.4560 319° Northwest 530 610 36,000  Level FlightAware
Thu 01:46:33 PM 8.4170 97.2300 295° West 529 609 36,000  Level FlightAware
Thu 01:47:13 PM 8.4520 97.1540 295° West 529 609 36,000  Level FlightAware
Thu 01:47:53 PM 8.4870 97.0770 295° West 529 609 36,000  Level FlightAware
Thu 01:48:33 PM 8.5230 97.0010 296° West 529 609 36,000  Level FlightAware
Thu 01:49:13 PM 8.5580 96.9250 295° West 529 609 36,000  Level FlightAware
Thu 01:50:03 PM 8.6020 96.8300 295° West 529 609 36,000  Level FlightAware
Thu 01:50:43 PM 8.6370 96.7530 295° West 529 609 36,000  Level FlightAware
Thu 01:51:23 PM 8.6720 96.6770 295° West 529 609 36,000  Level FlightAware
Thu 01:52:03 PM 8.7070 96.6010 295° West 529 609 36,000  Level FlightAware
Thu 01:52:53 PM 8.7510 96.5050 295° West 529 609 36,000  Level FlightAware
Thu 01:53:33 PM 8.7860 96.4290 295° West 529 609 36,000  Level FlightAware
Thu 01:54:13 PM 8.8210 96.3530 295° West 529 609 36,000  Level FlightAware
Thu 01:54:53 PM 8.8570 96.2760 295° West 529 609 36,000  Level FlightAware
Thu 01:55:33 PM 8.8920 96.2000 295° West 529 609 36,000 Level FlightAware
Thu 01:58:00 PM 9.1230 95.9963 319° Northwest  Level Estimated
Thu 01:59:00 PM 9.2173 95.9131 319° Northwest  Level Estimated
Thu 02:00:00 PM 9.3116 95.8299 319° Northwest  Level Estimated
Thu 02:01:00 PM 9.4058 95.7466 319° Northwest  Level Estimated
Thu 02:02:00 PM 9.5000 95.6633 319° Northwest  Level Estimated
Thu 02:03:00 PM 9.5942 95.5799 319° Northwest  Level Estimated
Thu 02:04:00 PM 9.6884 95.4964 319° Northwest  Level Estimated
Thu 02:05:00 PM 9.7825 95.4129 319° Northwest  Level Estimated
Thu 02:06:00 PM 9.8766 95.3294 319° Northwest  Level Estimated
Thu 02:07:00 PM 9.9707 95.2458 319° Northwest  Level Estimated
Thu 02:08:00 PM 10.0648 95.1622 319° Northwest  Level Estimated
Thu 02:09:00 PM 10.1589 95.0786 319° Northwest  Level Estimated
Thu 02:10:00 PM 10.2530 94.9948 319° Northwest  Level Estimated
Thu 02:11:00 PM 10.3470 94.9111 319° Northwest  Level Estimated
Thu 02:12:00 PM 10.4410 94.8272 319° Northwest  Level Estimated
Thu 02:13:00 PM 10.5350 94.7434 319° Northwest  Level Estimated
Thu 02:14:00 PM 10.6289 94.6595 319° Northwest  Level Estimated
Thu 02:15:00 PM 10.7229 94.5755 319° Northwest  Level Estimated
Thu 02:16:00 PM 10.8168 94.4915 319° Northwest  Level Estimated
Thu 02:17:00 PM 10.9107 94.4074 319° Northwest  Level Estimated
Thu 02:18:00 PM 11.0046 94.3232 319° Northwest  Level Estimated
Thu 02:19:00 PM 11.0984 94.2391 319° Northwest  Level Estimated
Thu 02:20:00 PM 11.1922 94.1548 319° Northwest  Level Estimated
Thu 02:21:00 PM 11.2860 94.0705 319° Northwest  Level Estimated
Thu 02:22:00 PM 11.3798 93.9862 319° Northwest  Level Estimated
Thu 02:23:00 PM 11.4736 93.9018 319° Northwest  Level Estimated
Thu 02:24:00 PM 11.5673 93.8173 319° Northwest  Level Estimated
Thu 02:25:00 PM 11.6610 93.7328 319° Northwest  Level Estimated
Thu 02:26:00 PM 11.7547 93.6482 319° Northwest  Level Estimated
Thu 02:27:00 PM 11.8483 93.5636 319° Northwest  Level Estimated
Thu 02:28:00 PM 11.9420 93.4789 318° Northwest  Level Estimated
Thu 02:29:00 PM 12.0356 93.3942 318° Northwest  Level Estimated
Thu 02:30:00 PM 12.1292 93.3094 318° Northwest  Level Estimated
Thu 02:31:00 PM 12.2227 93.2245 318° Northwest  Level Estimated
Thu 02:32:00 PM 12.3162 93.1396 318° Northwest  Level Estimated
Thu 02:33:00 PM 12.4097 93.0546 318° Northwest  Level Estimated
Thu 02:34:00 PM 12.5032 92.9695 318° Northwest  Level Estimated
Thu 02:35:00 PM 12.5967 92.8844 318° Northwest  Level Estimated
Thu 02:36:00 PM 12.6901 92.7992 318° Northwest  Level Estimated
Thu 02:37:00 PM 12.7835 92.7140 318° Northwest  Level Estimated
Thu 02:38:00 PM 12.8768 92.6287 318° Northwest  Level Estimated
Thu 02:39:00 PM 12.9702 92.5434 318° Northwest  Level Estimated
Thu 02:40:00 PM 13.0635 92.4579 318° Northwest  Level Estimated
Thu 02:41:00 PM 13.1568 92.3724 318° Northwest  Level Estimated
Thu 02:42:00 PM 13.2500 92.2869 318° Northwest  Level Estimated
Thu 02:43:00 PM 13.3432 92.2013 318° Northwest  Level Estimated
Thu 02:44:00 PM 13.4364 92.1156 318° Northwest  Level Estimated
Thu 02:45:00 PM 13.5296 92.0298 318° Northwest  Level Estimated
Thu 02:46:00 PM 13.6228 91.9440 318° Northwest  Level Estimated
Thu 02:47:00 PM 13.7159 91.8581 318° Northwest  Level Estimated
Thu 02:48:00 PM 13.8089 91.7721 318° Northwest  Level Estimated
Thu 02:49:00 PM 13.9020 91.6861 318° Northwest  Level Estimated
Thu 02:50:00 PM 13.9950 91.6000 318° Northwest  Level Estimated
Thu 02:51:00 PM 14.0880 91.5139 318° Northwest  Level Estimated
Thu 02:52:00 PM 14.1810 91.4277 318° Northwest  Level Estimated
Thu 02:53:00 PM 14.2739 91.3413 318° Northwest  Level Estimated
Thu 02:54:00 PM 14.3668 91.2550 318° Northwest  Level Estimated
Thu 02:55:00 PM 14.4597 91.1685 318° Northwest  Level Estimated
Thu 02:56:00 PM 14.5525 91.0820 318° Northwest  Level Estimated
Thu 02:57:00 PM 14.6453 90.9954 318° Northwest  Level Estimated
Thu 02:58:00 PM 14.7381 90.9087 318° Northwest  Level Estimated
Thu 02:59:00 PM 14.8308 90.8220 318° Northwest  Level Estimated
Thu 03:00:00 PM 14.9235 90.7352 318° Northwest  Level Estimated
Thu 03:01:00 PM 15.0162 90.6483 318° Northwest  Level Estimated
Thu 03:02:00 PM 15.1088 90.5613 318° Northwest  Level Estimated
Thu 03:03:00 PM 15.2014 90.4743 318° Northwest  Level Estimated
Thu 03:04:00 PM 15.2940 90.3872 318° Northwest  Level Estimated
Thu 03:05:00 PM 15.3865 90.3000 318° Northwest  Level Estimated
Thu 03:06:00 PM 15.4790 90.2127 318° Northwest  Level Estimated
Thu 03:07:00 PM 15.5715 90.1254 318° Northwest  Level Estimated
Thu 03:08:00 PM 15.6640 90.0379 318° Northwest  Level Estimated
Thu 03:09:00 PM 15.7564 89.9504 318° Northwest  Level Estimated
Thu 03:10:00 PM 15.8487 89.8628 318° Northwest  Level Estimated
Thu 03:11:00 PM 15.9411 89.7752 318° Northwest  Level Estimated
Thu 03:12:00 PM 16.0334 89.6874 318° Northwest  Level Estimated
Thu 03:13:00 PM 16.1256 89.5996 318° Northwest  Level Estimated
Thu 03:14:00 PM 16.2178 89.5117 318° Northwest  Level Estimated
Thu 03:15:00 PM 16.3100 89.4237 318° Northwest  Level Estimated
Thu 03:16:00 PM 16.4022 89.3356 317° Northwest  Level Estimated
Thu 03:17:00 PM 16.4943 89.2475 317° Northwest  Level Estimated
Thu 03:18:00 PM 16.5864 89.1592 317° Northwest  Level Estimated
Thu 03:19:00 PM 16.6784 89.0709 317° Northwest  Level Estimated
Thu 03:20:00 PM 16.7704 88.9825 317° Northwest  Level Estimated
Thu 03:21:00 PM 16.8624 88.8940 317° Northwest  Level Estimated
Thu 03:22:00 PM 16.9543 88.8054 317° Northwest  Level Estimated
Thu 03:23:00 PM 17.0462 88.7167 317° Northwest  Level Estimated
Thu 03:24:00 PM 17.1381 88.6280 317° Northwest  Level Estimated
Thu 03:25:00 PM 17.2299 88.5391 317° Northwest  Level Estimated
Thu 03:26:00 PM 17.3216 88.4502 317° Northwest  Level Estimated
Thu 03:27:00 PM 17.4134 88.3612 317° Northwest  Level Estimated
Thu 03:28:00 PM 17.5051 88.2720 317° Northwest  Level Estimated
Thu 03:29:00 PM 17.5967 88.1829 317° Northwest  Level Estimated
Thu 03:30:00 PM 17.6883 88.0936 317° Northwest  Level Estimated
Thu 03:31:00 PM 17.7799 88.0042 317° Northwest  Level Estimated
Thu 03:32:00 PM 17.8714 87.9147 317° Northwest  Level Estimated
Thu 03:33:00 PM 17.9629 87.8251 317° Northwest  Level Estimated
Thu 03:34:00 PM 18.0544 87.7355 317° Northwest  Level Estimated
Thu 03:35:00 PM 18.1458 87.6457 317° Northwest  Level Estimated
Thu 03:36:00 PM 18.2371 87.5559 317° Northwest  Level Estimated
Thu 03:37:00 PM 18.3285 87.4659 317° Northwest  Level Estimated
Thu 03:38:00 PM 18.4198 87.3759 317° Northwest  Level Estimated
Thu 03:39:00 PM 18.5110 87.2858 317° Northwest  Level Estimated
Thu 03:40:00 PM 18.6022 87.1955 317° Northwest  Level Estimated
Thu 03:41:00 PM 18.6933 87.1052 317° Northwest  Level Estimated
Thu 03:42:00 PM 18.7845 87.0148 317° Northwest  Level Estimated
Thu 03:43:00 PM 18.8755 86.9243 317° Northwest  Level Estimated
Thu 03:44:00 PM 18.9666 86.8336 317° Northwest  Level Estimated
Thu 03:45:00 PM 19.0575 86.7429 317° Northwest  Level Estimated
Thu 03:46:00 PM 19.1485 86.6521 317° Northwest  Level Estimated
Thu 03:47:00 PM 19.2394 86.5612 317° Northwest  Level Estimated
Thu 03:48:00 PM 19.3302 86.4702 317° Northwest  Level Estimated
Thu 03:49:00 PM 19.4210 86.3790 317° Northwest  Level Estimated
Thu 03:50:00 PM 19.5118 86.2878 317° Northwest  Level Estimated
Thu 03:51:00 PM 19.6025 86.1965 317° Northwest  Level Estimated
Thu 03:52:00 PM 19.6932 86.1051 316° Northwest  Level Estimated
Thu 03:53:00 PM 19.7838 86.0135 316° Northwest  Level Estimated
Thu 03:54:00 PM 19.8743 85.9219 316° Northwest  Level Estimated
Thu 03:55:00 PM 19.9649 85.8302 316° Northwest  Level Estimated
Thu 03:56:00 PM 20.0554 85.7383 316° Northwest  Level Estimated
Thu 03:57:00 PM 20.1458 85.6464 316° Northwest  Level Estimated
Thu 03:58:00 PM 20.2362 85.5543 316° Northwest  Level Estimated
Thu 03:59:00 PM 20.3265 85.4621 316° Northwest  Level Estimated
Thu 04:00:00 PM 20.4168 85.3699 316° Northwest  Level Estimated
Thu 04:01:00 PM 20.5070 85.2775 316° Northwest  Level Estimated
Thu 04:02:00 PM 20.5972 85.1850 316° Northwest  Level Estimated
Thu 04:03:00 PM 20.6874 85.0924 316° Northwest  Level Estimated
Thu 04:04:00 PM 20.7775 84.9997 316° Northwest  Level Estimated
Thu 04:05:00 PM 20.8675 84.9069 316° Northwest  Level Estimated
Thu 04:06:00 PM 20.9575 84.8139 316° Northwest  Level Estimated
Thu 04:07:00 PM 21.0474 84.7209 316° Northwest  Level Estimated
Thu 04:08:00 PM 21.1373 84.6277 316° Northwest  Level Estimated
Thu 04:09:00 PM 21.2271 84.5345 316° Northwest  Level Estimated
Thu 04:10:00 PM 21.3169 84.4411 316° Northwest  Level Estimated
Thu 04:11:00 PM 21.4067 84.3476 316° Northwest  Level Estimated
Thu 04:12:00 PM 21.4964 84.2540 316° Northwest  Level Estimated
Thu 04:13:00 PM 21.5860 84.1602 316° Northwest  Level Estimated
Thu 04:14:00 PM 21.6756 84.0664 316° Northwest  Level Estimated
Thu 04:15:00 PM 21.7651 83.9724 316° Northwest  Level Estimated
Thu 04:16:00 PM 21.8546 83.8784 316° Northwest  Level Estimated
Thu 04:17:00 PM 21.9440 83.7842 316° Northwest  Level Estimated
Thu 04:18:00 PM 22.0334 83.6898 316° Northwest  Level Estimated
Thu 04:19:00 PM 22.1227 83.5954 316° Northwest  Level Estimated
Thu 04:20:00 PM 22.2119 83.5009 316° Northwest  Level Estimated
Thu 04:21:00 PM 22.3011 83.4062 316° Northwest  Level Estimated
Thu 04:22:00 PM 22.3903 83.3114 315° West  Level Estimated
Thu 04:23:00 PM 22.4794 83.2165 315° West  Level Estimated
Thu 04:24:00 PM 22.5684 83.1215 315° West  Level Estimated
Thu 04:25:00 PM 22.6574 83.0263 315° West  Level Estimated
Thu 04:26:00 PM 22.7463 82.9310 315° West  Level Estimated
Thu 04:27:00 PM 22.8352 82.8356 315° West  Level Estimated
Thu 04:28:00 PM 22.9240 82.7401 315° West  Level Estimated
Thu 04:29:00 PM 23.0127 82.6444 315° West  Level Estimated
Thu 04:30:00 PM 23.1014 82.5486 315° West  Level Estimated
Thu 04:31:00 PM 23.1901 82.4527 315° West  Level Estimated
Thu 04:32:00 PM 23.2787 82.3567 315° West  Level Estimated
Thu 04:33:00 PM 23.3672 82.2605 315° West  Level Estimated
Thu 04:34:00 PM 23.4556 82.1642 315° West  Level Estimated
Thu 04:35:00 PM 23.5440 82.0678 315° West  Level Estimated
Thu 04:36:00 PM 23.6324 81.9713 315° West  Level Estimated
Thu 04:37:00 PM 23.7207 81.8746 315° West  Level Estimated
Thu 04:38:00 PM 23.8089 81.7778 315° West  Level Estimated
Thu 04:39:00 PM 23.8970 81.6808 315° West  Level Estimated
Thu 04:40:00 PM 23.9851 81.5837 315° West  Level Estimated
Thu 04:41:00 PM 24.0732 81.4865 315° West  Level Estimated
Thu 04:42:00 PM 24.1612 81.3892 315° West  Level Estimated
Thu 04:43:00 PM 24.2491 81.2917 315° West  Level Estimated
Thu 04:44:00 PM 24.3369 81.1941 315° West  Level Estimated
Thu 04:45:00 PM 24.4247 81.0963 315° West  Level Estimated
Thu 04:46:00 PM 24.5125 80.9985 315° West  Level Estimated
Thu 04:47:00 PM 24.6001 80.9004 315° West  Level Estimated
Thu 04:48:00 PM 24.6877 80.8023 314° West  Level Estimated
Thu 04:49:00 PM 24.7753 80.7040 314° West  Level Estimated
Thu 04:50:00 PM 24.8627 80.6055 314° West  Level Estimated
Thu 04:51:00 PM 24.9502 80.5070 314° West  Level Estimated
Thu 04:52:00 PM 25.0375 80.4083 314° West  Level Estimated
Thu 04:53:00 PM 25.1248 80.3094 314° West  Level Estimated
Thu 04:54:00 PM 25.2120 80.2104 314° West  Level Estimated
Thu 04:55:00 PM 25.2992 80.1113 314° West  Level Estimated
Thu 04:56:00 PM 25.3862 80.0120 314° West  Level Estimated
Thu 04:57:00 PM 25.4732 79.9126 314° West  Level Estimated
Thu 04:58:00 PM 25.5602 79.8130 314° West  Level Estimated
Thu 04:59:00 PM 25.6471 79.7133 314° West  Level Estimated
Thu 05:00:00 PM 25.7339 79.6134 314° West  Level Estimated
Thu 05:01:00 PM 25.8206 79.5134 314° West  Level Estimated
Thu 05:02:00 PM 25.9073 79.4133 314° West  Level Estimated
Thu 05:03:00 PM 25.9939 79.3130 314° West  Level Estimated
Thu 05:04:00 PM 26.0805 79.2125 314° West  Level Estimated
Thu 05:05:00 PM 26.1669 79.1119 314° West  Level Estimated
Thu 05:06:00 PM 26.2533 79.0112 314° West  Level Estimated
Thu 05:07:00 PM 26.3397 78.9103 314° West  Level Estimated
Thu 05:08:00 PM 26.4259 78.8093 314° West  Level Estimated
Thu 05:09:00 PM 26.5121 78.7081 314° West  Level Estimated
Thu 05:10:00 PM 26.5982 78.6067 314° West  Level Estimated
Thu 05:11:00 PM 26.6843 78.5052 314° West  Level Estimated
Thu 05:12:00 PM 26.7703 78.4036 313° West  Level Estimated
Thu 05:13:00 PM 26.8561 78.3018 313° West  Level Estimated
Thu 05:14:00 PM 26.9420 78.1998 313° West  Level Estimated
Thu 05:15:00 PM 27.0277 78.0977 313° West  Level Estimated
Thu 05:16:00 PM 27.1134 77.9954 313° West  Level Estimated
Thu 05:17:00 PM 27.1990 77.8930 313° West  Level Estimated
Thu 05:18:00 PM 27.2845 77.7904 313° West  Level Estimated
Thu 05:19:00 PM 27.3700 77.6877 313° West  Level Estimated
Thu 05:20:00 PM 27.4554 77.5848 313° West  Level Estimated
Thu 05:21:00 PM 27.5407 77.4817 313° West  Level Estimated
Thu 05:22:00 PM 27.6259 77.3785 313° West  Level Estimated
Thu 05:23:00 PM 27.7111 77.2751 313° West  Level Estimated
Thu 05:24:00 PM 27.7961 77.1715 313° West  Level Estimated
Thu 05:25:00 PM 27.8811 77.0678 313° West  Level Estimated
Thu 05:26:00 PM 27.9660 76.9640 313° West  Level Estimated
Thu 05:27:00 PM 28.0509 76.8599 313° West  Level Estimated
Thu 05:28:00 PM 28.1356 76.7557 313° West  Level Estimated
Thu 05:29:00 PM 28.2203 76.6514 313° West  Level Estimated
Thu 05:30:00 PM 28.3049 76.5469 313° West  Level Estimated
Thu 05:31:00 PM 28.3894 76.4422 313° West  Level Estimated
Thu 05:32:00 PM 28.4739 76.3373 313° West  Level Estimated
Thu 05:33:00 PM 28.5582 76.2323 312° West  Level Estimated
Thu 05:34:00 PM 28.6425 76.1271 312° West  Level Estimated
Thu 05:35:00 PM 28.7267 76.0217 312° West  Level Estimated
Thu 05:36:00 PM 28.8108 75.9162 312° West  Level Estimated
Thu 05:37:00 PM 28.8949 75.8104 312° West  Level Estimated
Thu 05:38:00 PM 28.9788 75.7046 312° West  Level Estimated
Thu 05:39:00 PM 29.0627 75.5985 312° West  Level Estimated
Thu 05:40:00 PM 29.1465 75.4923 312° West  Level Estimated
Thu 05:41:00 PM 29.2302 75.3859 312° West  Level Estimated
Thu 05:42:00 PM 29.3138 75.2793 312° West  Level Estimated
Thu 05:43:00 PM 29.3974 75.1726 312° West  Level Estimated
Thu 05:44:00 PM 29.4808 75.0657 312° West  Level Estimated
Thu 05:45:00 PM 29.5642 74.9586 312° West  Level Estimated
Thu 05:46:00 PM 29.6474 74.8513 312° West  Level Estimated
Thu 05:47:00 PM 29.7306 74.7439 312° West  Level Estimated
Thu 05:48:00 PM 29.8137 74.6362 312° West  Level Estimated
Thu 05:49:00 PM 29.8967 74.5284 312° West  Level Estimated
Thu 05:50:00 PM 29.9797 74.4204 312° West  Level Estimated
Thu 05:51:00 PM 30.0625 74.3122 312° West  Level Estimated
Thu 05:52:00 PM 30.1453 74.2039 311° West  Level Estimated
Thu 05:53:00 PM 30.2279 74.0954 311° West  Level Estimated
Thu 05:54:00 PM 30.3105 73.9867 311° West  Level Estimated
Thu 05:55:00 PM 30.3930 73.8778 311° West  Level Estimated
Thu 05:56:00 PM 30.4754 73.7687 311° West  Level Estimated
Thu 05:57:00 PM 30.5577 73.6594 311° West  Level Estimated
Thu 05:58:00 PM 30.6399 73.5500 311° West  Level Estimated
Thu 05:59:00 PM 30.7220 73.4403 311° West  Level Estimated
Thu 06:00:00 PM 30.8040 73.3305 311° West  Level Estimated
Thu 06:01:00 PM 30.8860 73.2205 311° West  Level Estimated
Thu 06:02:00 PM 30.9678 73.1103 311° West  Level Estimated
Thu 06:03:00 PM 31.0495 72.9999 311° West  Level Estimated
Thu 06:04:00 PM 31.1312 72.8893 311° West  Level Estimated
Thu 06:05:00 PM 31.2128 72.7785 311° West  Level Estimated
Thu 06:06:00 PM 31.2942 72.6676 311° West  Level Estimated
Thu 06:07:00 PM 31.3756 72.5564 311° West  Level Estimated
Thu 06:08:00 PM 31.4569 72.4451 311° West  Level Estimated
Thu 06:09:00 PM 31.5380 72.3336 311° West  Level Estimated
Thu 06:10:00 PM 31.6191 72.2218 310° West  Level Estimated
Thu 06:11:00 PM 31.7001 72.1099 310° West  Level Estimated
Thu 06:12:00 PM 31.7810 71.9978 310° West  Level Estimated
Thu 06:13:00 PM 31.8618 71.8855 310° West  Level Estimated
Thu 06:14:00 PM 31.9424 71.7729 310° West  Level Estimated
Thu 06:15:00 PM 32.0230 71.6602 310° West  Level Estimated
Thu 06:16:00 PM 32.1035 71.5473 310° West  Level Estimated
Thu 06:17:00 PM 32.1839 71.4342 310° West  Level Estimated
Thu 06:18:00 PM 32.2642 71.3209 310° West  Level Estimated
Thu 06:19:00 PM 32.3444 71.2074 310° West  Level Estimated
Thu 06:20:00 PM 32.4245 71.0937 310° West  Level Estimated
Thu 06:21:00 PM 32.5045 70.9798 310° West  Level Estimated
Thu 06:22:00 PM 32.5843 70.8657 310° West  Level Estimated
Thu 06:23:00 PM 32.6641 70.7513 310° West  Level Estimated
Thu 06:24:00 PM 32.7438 70.6368 310° West  Level Estimated
Thu 06:25:00 PM 32.8233 70.5221 310° West  Level Estimated
Thu 06:26:00 PM 32.9028 70.4072 309° West  Level Estimated
Thu 06:27:00 PM 32.9822 70.2920 309° West  Level Estimated
Thu 06:28:00 PM 33.0614 70.1767 309° West  Level Estimated
Thu 06:29:00 PM 33.1405 70.0611 309° West  Level Estimated
Thu 06:30:00 PM 33.2196 69.9454 309° West  Level Estimated
Thu 06:31:00 PM 33.2985 69.8294 309° West  Level Estimated
Thu 06:32:00 PM 33.3773 69.7132 309° West  Level Estimated
Thu 06:33:00 PM 33.4561 69.5968 309° West  Level Estimated
Thu 06:34:00 PM 33.5346 69.4802 309° West  Level Estimated
Thu 06:35:00 PM 33.6131 69.3634 309° West  Level Estimated
Thu 06:36:00 PM 33.6915 69.2464 309° West  Level Estimated
Thu 06:37:00 PM 33.7698 69.1291 309° West  Level Estimated
Thu 06:38:00 PM 33.8479 69.0117 309° West  Level Estimated
Thu 06:39:00 PM 33.9260 68.8940 309° West  Level Estimated
Thu 06:40:00 PM 34.0039 68.7761 309° West  Level Estimated
Thu 06:41:00 PM 34.0818 68.6580 309° West  Level Estimated
Thu 06:42:00 PM 34.1595 68.5397 308° West  Level Estimated
Thu 06:43:00 PM 34.2371 68.4212 308° West  Level Estimated
Thu 06:44:00 PM 34.3146 68.3024 308° West  Level Estimated
Thu 06:45:00 PM 34.3919 68.1834 308° West  Level Estimated
Thu 06:46:00 PM 34.4692 68.0642 308° West  Level Estimated
Thu 06:47:00 PM 34.5463 67.9448 308° West  Level Estimated
Thu 06:48:00 PM 34.6233 67.8251 308° West  Level Estimated
Thu 06:49:00 PM 34.7003 67.7053 308° West  Level Estimated
Thu 06:50:00 PM 34.7771 67.5852 308° West  Level Estimated
Thu 06:51:00 PM 34.8537 67.4649 308° West  Level Estimated
Thu 06:52:00 PM 34.9303 67.3444 308° West  Level Estimated
Thu 06:53:00 PM 35.0067 67.2236 308° West  Level Estimated
Thu 06:54:00 PM 35.0830 67.1026 308° West  Level Estimated
Thu 06:55:00 PM 35.1592 66.9814 308° West  Level Estimated
Thu 06:56:00 PM 35.2353 66.8600 308° West  Level Estimated
Thu 06:57:00 PM 35.3112 66.7383 307° West  Level Estimated
Thu 06:58:00 PM 35.3871 66.6164 307° West  Level Estimated
Thu 06:59:00 PM 35.4627 66.4943 307° West  Level Estimated
Thu 07:00:00 PM 35.5383 66.3720 307° West  Level Estimated
Thu 07:01:00 PM 35.6138 66.2494 307° West  Level Estimated
Thu 07:02:00 PM 35.6891 66.1266 307° West  Level Estimated
Thu 07:03:00 PM 35.7643 66.0035 307° West  Level Estimated
Thu 07:04:00 PM 35.8394 65.8802 307° West  Level Estimated
Thu 07:05:00 PM 35.9144 65.7567 307° West  Level Estimated
Thu 07:06:00 PM 35.9892 65.6330 307° West  Level Estimated
Thu 07:07:00 PM 36.0639 65.5090 307° West  Level Estimated
Thu 07:08:00 PM 36.1385 65.3848 307° West  Level Estimated
Thu 07:09:00 PM 36.2129 65.2603 307° West  Level Estimated
Thu 07:10:00 PM 36.2872 65.1356 307° West  Level Estimated
Thu 07:11:00 PM 36.3614 65.0107 306° West  Level Estimated
Thu 07:12:00 PM 36.4355 64.8856 306° West  Level Estimated
Thu 07:13:00 PM 36.5094 64.7601 306° West  Level Estimated
Thu 07:14:00 PM 36.5832 64.6345 306° West  Level Estimated
Thu 07:15:00 PM 36.6569 64.5086 306° West  Level Estimated
Thu 07:16:00 PM 36.7304 64.3825 306° West  Level Estimated
Thu 07:17:00 PM 36.8038 64.2561 306° West  Level Estimated
Thu 07:18:00 PM 36.8771 64.1295 306° West  Level Estimated
Thu 07:19:00 PM 36.9502 64.0027 306° West  Level Estimated
Thu 07:20:00 PM 37.0232 63.8756 306° West  Level Estimated
Thu 07:21:00 PM 37.0960 63.7482 306° West  Level Estimated
Thu 07:22:00 PM 37.1688 63.6207 306° West  Level Estimated
Thu 07:23:00 PM 37.2413 63.4928 306° West  Level Estimated
Thu 07:24:00 PM 37.3138 63.3648 305° West  Level Estimated
Thu 07:25:00 PM 37.3861 63.2364 305° West  Level Estimated
Thu 07:26:00 PM 37.4583 63.1079 305° West  Level Estimated
Thu 07:27:00 PM 37.5303 62.9790 305° West  Level Estimated
Thu 07:28:00 PM 37.6022 62.8500 305° West  Level Estimated
Thu 07:29:00 PM 37.6739 62.7207 305° West  Level Estimated
Thu 07:30:00 PM 37.7455 62.5911 305° West  Level Estimated
Thu 07:31:00 PM 37.8170 62.4613 305° West  Level Estimated
Thu 07:32:00 PM 37.8883 62.3312 305° West  Level Estimated
Thu 07:33:00 PM 37.9595 62.2009 305° West  Level Estimated
Thu 07:34:00 PM 38.0305 62.0703 305° West  Level Estimated
Thu 07:35:00 PM 38.1014 61.9395 305° West  Level Estimated
Thu 07:36:00 PM 38.1722 61.8084 304° West  Level Estimated
Thu 07:37:00 PM 38.2428 61.6771 304° West  Level Estimated
Thu 07:38:00 PM 38.3132 61.5455 304° West  Level Estimated
Thu 07:39:00 PM 38.3835 61.4136 304° West  Level Estimated
Thu 07:40:00 PM 38.4537 61.2815 304° West  Level Estimated
Thu 07:41:00 PM 38.5237 61.1492 304° West  Level Estimated
Thu 07:42:00 PM 38.5936 61.0166 304° West  Level Estimated
Thu 07:43:00 PM 38.6633 60.8837 304° West  Level Estimated
Thu 07:44:00 PM 38.7328 60.7506 304° West  Level Estimated
Thu 07:45:00 PM 38.8022 60.6172 304° West  Level Estimated
Thu 07:46:00 PM 38.8715 60.4835 304° West  Level Estimated
Thu 07:47:00 PM 38.9406 60.3496 304° West  Level Estimated
Thu 07:48:00 PM 39.0095 60.2154 304° West  Level Estimated
Thu 07:49:00 PM 39.0783 60.0810 303° West  Level Estimated
Thu 07:50:00 PM 39.1470 59.9463 303° West  Level Estimated
Thu 07:51:00 PM 39.2154 59.8114 303° West  Level Estimated
Thu 07:52:00 PM 39.2838 59.6761 303° West  Level Estimated
Thu 07:53:00 PM 39.3519 59.5406 303° West  Level Estimated
Thu 07:54:00 PM 39.4199 59.4049 303° West  Level Estimated
Thu 07:55:00 PM 39.4878 59.2689 303° West  Level Estimated
Thu 07:56:00 PM 39.5555 59.1326 303° West  Level Estimated
Thu 07:57:00 PM 39.6231 58.9960 303° West  Level Estimated
Thu 07:58:00 PM 39.6904 58.8592 303° West  Level Estimated
Thu 07:59:00 PM 39.7576 58.7221 303° West  Level Estimated
Thu 08:00:00 PM 39.8247 58.5848 302° West  Level Estimated
Thu 08:01:00 PM 39.8916 58.4472 302° West  Level Estimated
Thu 08:02:00 PM 39.9583 58.3093 302° West  Level Estimated
Thu 08:03:00 PM 40.0249 58.1712 302° West  Level Estimated
Thu 08:04:00 PM 40.0913 58.0327 302° West  Level Estimated
Thu 08:05:00 PM 40.1575 57.8940 302° West  Level Estimated
Thu 08:06:00 PM 40.2236 57.7551 302° West  Level Estimated
Thu 08:07:00 PM 40.2895 57.6158 302° West  Level Estimated
Thu 08:08:00 PM 40.3553 57.4763 302° West  Level Estimated
Thu 08:09:00 PM 40.4208 57.3366 302° West  Level Estimated
Thu 08:10:00 PM 40.4862 57.1965 302° West  Level Estimated
Thu 08:11:00 PM 40.5515 57.0562 301° West  Level Estimated
Thu 08:12:00 PM 40.6165 56.9156 301° West  Level Estimated
Thu 08:13:00 PM 40.6814 56.7747 301° West  Level Estimated
Thu 08:14:00 PM 40.7461 56.6336 301° West  Level Estimated
Thu 08:15:00 PM 40.8107 56.4922 301° West  Level Estimated
Thu 08:16:00 PM 40.8750 56.3505 301° West  Level Estimated
Thu 08:17:00 PM 40.9393 56.2085 301° West  Level Estimated
Thu 08:18:00 PM 41.0033 56.0662 301° West  Level Estimated
Thu 08:19:00 PM 41.0671 55.9237 301° West  Level Estimated
Thu 08:20:00 PM 41.1308 55.7809 301° West  Level Estimated
Thu 08:21:00 PM 41.1943 55.6379 301° West  Level Estimated
Thu 08:22:00 PM 41.2576 55.4945 300° West  Level Estimated
Thu 08:23:00 PM 41.3208 55.3509 300° West  Level Estimated
Thu 08:24:00 PM 41.3837 55.2070 300° West  Level Estimated
Thu 08:25:00 PM 41.4465 55.0628 300° West  Level Estimated
Thu 08:26:00 PM 41.5091 54.9183 300° West  Level Estimated
Thu 08:27:00 PM 41.5715 54.7735 300° West  Level Estimated
Thu 08:28:00 PM 41.6338 54.6285 300° West  Level Estimated
Thu 08:29:00 PM 41.6958 54.4832 300° West  Level Estimated
Thu 08:30:00 PM 41.7577 54.3376 300° West  Level Estimated
Thu 08:31:00 PM 41.8194 54.1918 300° West  Level Estimated
Thu 08:32:00 PM 41.8809 54.0456 300° West  Level Estimated
Thu 08:33:00 PM 41.9422 53.8992 299° West  Level Estimated
Thu 08:34:00 PM 42.0033 53.7525 299° West  Level Estimated
Thu 08:35:00 PM 42.0643 53.6055 299° West  Level Estimated
Thu 08:36:00 PM 42.1250 53.4582 299° West  Level Estimated
Thu 08:37:00 PM 42.1856 53.3107 299° West  Level Estimated
Thu 08:38:00 PM 42.2460 53.1628 299° West  Level Estimated
Thu 08:39:00 PM 42.3062 53.0147 299° West  Level Estimated
Thu 08:39:53 PM 43.8630 50.9120 299° West 483 556 38,000  Level FlightAware
Thu 08:40:00 PM 42.3662 52.8663 299° West  Level Estimated
Thu 08:40:33 PM 43.9180 50.8250 311° West 483 556 38,000  Level FlightAware
Thu 08:41:33 PM 44.0130 50.6760 312° West 484 557 38,000  Level FlightAware
Thu 08:42:23 PM 44.0830 50.5650 311° West 489 563 38,000  Level FlightAware
Thu 08:43:08 PM 44.1540 50.4520 311° West 487 560 38,000  Level FlightAware
Thu 08:43:53 PM 44.2210 50.3450 311° West 484 557 38,000  Level FlightAware
Thu 08:44:33 PM 44.2750 50.2590 311° West 484 557 38,000  Level FlightAware
Thu 08:45:18 PM 44.3450 50.1450 311° West 485 558 38,000  Level FlightAware
Thu 08:45:58 PM 44.4030 50.0510 311° West 487 560 38,000  Level FlightAware
Thu 08:46:38 PM 44.4630 49.9550 311° West 489 563 38,000  Level FlightAware
Thu 08:47:23 PM 44.5280 49.8480 310° West 491 565 38,000  Level FlightAware
Thu 08:48:08 PM 44.5950 49.7380 311° West 494 568 38,000  Level FlightAware
Thu 08:48:48 PM 44.6520 49.6450 311° West 495 570 38,000  Level FlightAware
Thu 08:49:33 PM 44.7210 49.5320 311° West 493 567 38,000  Level FlightAware
Thu 08:50:23 PM 44.7850 49.4120 307° West 488 562 38,000  Level FlightAware
Thu 08:51:08 PM 44.8430 49.2830 302° West 482 555 38,000  Level FlightAware
Thu 08:51:53 PM 44.8910 49.1630 299° West 481 554 38,000  Level FlightAware
Thu 08:52:33 PM 44.9360 49.0520 300° West 480 552 38,000  Level FlightAware
Thu 08:53:13 PM 44.9790 48.9450 300° West 480 552 38,000  Level FlightAware
Thu 08:53:58 PM 45.0270 48.8240 299° West 480 552 38,000  Level FlightAware
Thu 08:54:43 PM 45.0760 48.7010 299° West 482 555 38,000  Level FlightAware
Thu 08:55:23 PM 45.1210 48.5880 299° West 484 557 38,000  Level FlightAware
Thu 08:56:03 PM 45.1650 48.4770 299° West 484 557 38,000  Level FlightAware
Thu 08:56:48 PM 45.2100 48.3610 299° West 482 555 38,000  Level FlightAware
Thu 08:57:18 PM 45.2430 48.2780 299° West 483 556 38,000  Level FlightAware
Thu 08:58:08 PM 45.3000 48.1310 299° West 486 559 38,000  Level FlightAware
Thu 08:58:53 PM 45.3480 48.0090 299° West 482 555 38,000  Level FlightAware
Thu 08:59:48 PM 45.4060 47.8580 299° West 478 550 38,000  Level FlightAware
Thu 09:00:23 PM 45.4390 47.7710 298° West 478 550 38,000  Level FlightAware
Thu 09:01:03 PM 45.4850 47.6510 299° West 475 547 38,000  Level FlightAware
Thu 09:01:48 PM 45.5260 47.5410 298° West 475 547 38,000  Level FlightAware
Thu 09:02:33 PM 45.5800 47.4030 299° West 481 554 38,000  Level FlightAware
Thu 09:03:18 PM 45.6270 47.2790 298° West 482 555 38,000  Level FlightAware
Thu 09:03:53 PM 45.6660 47.1740 298° West 482 555 38,000  Level FlightAware
Thu 09:04:43 PM 45.7170 47.0370 298° West 480 552 38,000  Level FlightAware
Thu 09:05:23 PM 45.7590 46.9270 299° West 479 551 38,000  Level FlightAware
Thu 09:06:08 PM 45.8050 46.8030 298° West 478 550 38,000  Level FlightAware
Thu 09:06:48 PM 45.8460 46.6900 298° West 479 551 38,000  Level FlightAware
Thu 09:07:28 PM 45.8890 46.5750 298° West 481 554 38,000  Level FlightAware
Thu 09:08:08 PM 45.9310 46.4610 298° West 482 555 38,000  Level FlightAware
Thu 09:08:48 PM 45.9690 46.3560 298° West 484 557 38,000  Level FlightAware
Thu 09:09:33 PM 46.0180 46.2220 298° West 485 558 38,000  Level FlightAware
Thu 09:10:08 PM 46.0560 46.1170 298° West 485 558 38,000  Level FlightAware
Thu 09:10:58 PM 46.1050 45.9810 297° West 485 558 38,000  Level FlightAware
Thu 09:11:33 PM 46.1430 45.8730 297° West 483 556 38,000  Level FlightAware
Thu 09:12:23 PM 46.1940 45.7300 297° West 481 554 38,000  Level FlightAware
Thu 09:13:03 PM 46.2340 45.6190 298° West 479 551 38,000  Level FlightAware
Thu 09:13:48 PM 46.2800 45.4890 297° West 479 551 38,000  Level FlightAware
Thu 09:14:28 PM 46.3190 45.3780 297° West 482 555 38,000  Level FlightAware
Thu 09:15:08 PM 46.3600 45.2610 297° West 482 555 38,000  Level FlightAware
Thu 09:15:48 PM 46.3990 45.1480 297° West 482 555 38,000  Level FlightAware
Thu 09:16:38 PM 46.4470 45.0110 297° West 481 554 38,000  Level FlightAware
Thu 09:17:18 PM 46.4880 44.8910 296° West 483 556 38,000  Level FlightAware
Thu 09:17:58 PM 46.5280 44.7770 297° West 483 556 38,000  Level FlightAware
Thu 09:18:43 PM 46.5740 44.6420 296° West 483 556 38,000  Level FlightAware
Thu 09:19:23 PM 46.6140 44.5240 296° West 485 558 38,000  Level FlightAware
Thu 09:20:08 PM 46.6550 44.4040 296° West 487 560 38,000  Level FlightAware
Thu 09:20:48 PM 46.6940 44.2870 296° West 488 562 38,000  Level FlightAware
Thu 09:21:23 PM 46.7330 44.1710 296° West 488 562 38,000  Level FlightAware
Thu 09:22:13 PM 46.7810 44.0300 296° West 489 563 38,000  Level FlightAware
Thu 09:22:53 PM 46.8210 43.9080 296° West 488 562 38,000  Level FlightAware
Thu 09:23:38 PM 46.8660 43.7740 296° West 486 559 38,000  Level FlightAware
Thu 09:24:18 PM 46.9050 43.6550 296° West 486 559 38,000  Level FlightAware
Thu 09:24:58 PM 46.9430 43.5400 296° West 486 559 38,000  Level FlightAware
Thu 09:25:43 PM 46.9870 43.4050 296° West 489 563 38,000  Level FlightAware
Thu 09:26:23 PM 47.0250 43.2870 295° West 488 562 38,000  Level FlightAware
Thu 09:27:08 PM 47.0690 43.1530 296° West 486 559 38,000  Level FlightAware
Thu 09:27:48 PM 47.1040 43.0320 293° West 484 557 38,000  Level FlightAware
Thu 09:28:28 PM 47.1350 42.9100 291° West 485 558 38,000  Level FlightAware
Thu 09:29:13 PM 47.1710 42.7730 291° West 487 560 38,000  Level FlightAware
Thu 09:29:48 PM 47.1970 42.6740 291° West 490 564 38,000  Level FlightAware
Thu 09:30:33 PM 47.2350 42.5260 291° West 489 563 38,000  Level FlightAware
Thu 09:31:18 PM 47.2720 42.3820 291° West 487 560 38,000  Level FlightAware
Thu 09:31:58 PM 47.3030 42.2620 291° West 485 558 38,000  Level FlightAware
Thu 09:32:43 PM 47.3360 42.1310 290° West 485 558 38,000  Level FlightAware
Thu 09:33:13 PM 47.3630 42.0250 291° West 485 558 38,000  Level FlightAware
Thu 09:33:58 PM 47.3980 41.8870 291° West 485 558 38,000  Level FlightAware
Thu 09:34:48 PM 47.4360 41.7330 290° West 484 557 38,000  Level FlightAware
Thu 09:35:23 PM 47.4600 41.6360 290° West 482 555 38,000  Level FlightAware
Thu 09:36:13 PM 47.5010 41.4720 290° West 480 552 38,000  Level FlightAware
Thu 09:36:53 PM 47.5310 41.3480 290° West 480 552 38,000  Level FlightAware
Thu 09:37:38 PM 47.5640 41.2140 290° West 480 552 38,000  Level FlightAware
Thu 09:38:18 PM 47.5960 41.0880 291° West 481 554 38,000  Level FlightAware
Thu 09:38:58 PM 47.6320 40.9670 294° West 481 554 38,000  Level FlightAware
Thu 09:39:38 PM 47.6640 40.8590 294° West 481 554 38,000  Level FlightAware
Thu 09:40:18 PM 47.6990 40.7400 294° West 480 552 38,000  Level FlightAware
Thu 09:41:08 PM 47.7440 40.5890 294° West 479 551 38,000  Level FlightAware
Thu 09:41:43 PM 47.7760 40.4780 293° West 479 551 38,000  Level FlightAware
Thu 09:42:23 PM 47.8110 40.3580 294° West 482 555 38,000  Level FlightAware
Thu 09:43:13 PM 47.8550 40.2060 293° West 480 552 38,000  Level FlightAware
Thu 09:43:48 PM 47.8870 40.0900 292° West 477 549 38,000  Level FlightAware
Thu 09:44:38 PM 47.9210 39.9320 288° West 478 550 38,000  Level FlightAware
Thu 09:45:13 PM 47.9450 39.8230 288° West 482 555 38,000  Level FlightAware
Thu 09:45:58 PM 47.9810 39.6880 292° West 483 556 38,000  Level FlightAware
Thu 09:46:38 PM 48.0150 39.5690 293° West 482 555 38,000  Level FlightAware
Thu 09:47:23 PM 48.0550 39.4220 292° West 481 554 38,000  Level FlightAware
Thu 09:48:13 PM 48.0890 39.2910 291° West 480 552 38,000  Level FlightAware
Thu 09:49:13 PM 48.1400 39.0980 292° West 477 549 38,000  Level FlightAware
Thu 09:50:03 PM 48.1780 38.9570 292° West 475 547 38,000  Level FlightAware
Thu 09:50:48 PM 48.2160 38.8080 291° West 475 547 38,000  Level FlightAware
Thu 09:51:38 PM 48.2390 38.6510 282° West 472 543 38,000  Level FlightAware
Thu 09:52:18 PM 48.2640 38.5260 287° West 471 542 38,000  Level FlightAware
Thu 09:52:53 PM 48.2840 38.4270 287° West 469 540 38,000  Level FlightAware
Thu 09:53:43 PM 48.3130 38.2730 286° West 469 540 38,000  Level FlightAware
Thu 09:54:23 PM 48.3380 38.1480 287° West 470 541 38,000  Level FlightAware
Thu 09:55:03 PM 48.3620 38.0190 286° West 469 540 38,000  Level FlightAware
Thu 09:55:43 PM 48.3860 37.8920 286° West 467 537 38,000  Level FlightAware
Thu 09:56:23 PM 48.4100 37.7670 286° West 467 537 38,000  Level FlightAware
Thu 09:57:03 PM 48.4330 37.6440 286° West 468 539 38,000  Level FlightAware
Thu 09:57:53 PM 48.4620 37.4890 286° West 467 537 38,000  Level FlightAware
Thu 09:58:28 PM 48.4850 37.3630 285° West 467 537 38,000  Level FlightAware
Thu 09:59:18 PM 48.5110 37.2240 286° West 467 537 38,000  Level FlightAware
Thu 09:59:58 PM 48.5340 37.0930 285° West 466 536 38,000  Level FlightAware
Thu 10:00:43 PM 48.5580 36.9640 286° West 465 535 38,000  Level FlightAware
Thu 10:01:23 PM 48.5790 36.8450 285° West 466 536 38,000 117 Level FlightAware
Thu 10:03:00 PM 48.6280 36.5484 284° West  Level Estimated
Thu 10:04:00 PM 48.6579 36.3647 284° West  Level Estimated
Thu 10:04:08 PM 48.6880 36.2930 284° West 474 545 38,400  Level FlightAware
Thu 10:04:53 PM 48.7220 36.1540 290° West 472 543 39,100 776 Climbing FlightAware
Thu 10:05:33 PM 48.7500 36.0370 290° West 474 545 39,500 154 Climbing FlightAware
Thu 10:08:00 PM 48.8203 35.5845 283° West  Level Estimated
Thu 10:09:00 PM 48.8485 35.3994 283° West  Level Estimated
Thu 10:10:00 PM 48.8763 35.2141 283° West  Level Estimated
Thu 10:10:43 PM 48.9810 35.0770 283° West 467 537 40,000  Level FlightAware
Thu 10:11:23 PM 49.0090 34.9590 290° West 465 535 40,000  Level FlightAware
Thu 10:12:13 PM 49.0460 34.8020 290° West 463 533 40,000  Level FlightAware
Thu 10:13:03 PM 49.0820 34.6460 289° West 465 535 40,000  Level FlightAware
Thu 10:13:43 PM 49.1100 34.5220 289° West 467 537 40,000  Level FlightAware
Thu 10:14:18 PM 49.1350 34.4130 289° West 467 537 40,000  Level FlightAware
Thu 10:15:08 PM 49.1680 34.2700 289° West 468 539 40,000  Level FlightAware
Thu 10:15:43 PM 49.1940 34.1560 289° West 466 536 40,000  Level FlightAware
Thu 10:16:33 PM 49.2300 33.9920 289° West 468 539 40,000  Level FlightAware
Thu 10:17:13 PM 49.2570 33.8710 289° West 468 539 40,000  Level FlightAware
Thu 10:17:48 PM 49.2830 33.7580 289° West 466 536 40,000  Level FlightAware
Thu 10:18:33 PM 49.3120 33.6230 288° West 467 537 40,000  Level FlightAware
Thu 10:19:13 PM 49.3370 33.5020 288° West 468 539 40,000  Level FlightAware
Thu 10:20:03 PM 49.3710 33.3340 287° West 466 536 40,000  Level FlightAware
Thu 10:20:43 PM 49.3970 33.2080 288° West 470 541 40,000  Level FlightAware
Thu 10:21:23 PM 49.4230 33.0790 287° West 473 544 40,000  Level FlightAware
Thu 10:22:08 PM 49.4510 32.9400 287° West 475 547 40,000  Level FlightAware
Thu 10:22:43 PM 49.4730 32.8250 286° West 474 545 40,000  Level FlightAware
Thu 10:23:33 PM 49.5040 32.6730 287° West 474 545 40,000  Level FlightAware
Thu 10:24:08 PM 49.5270 32.5590 287° West 474 545 40,000  Level FlightAware
Thu 10:24:53 PM 49.5570 32.4070 287° West 474 545 40,000  Level FlightAware
Thu 10:25:28 PM 49.5800 32.2920 287° West 474 545 40,000  Level FlightAware
Thu 10:26:18 PM 49.6100 32.1390 287° West 477 549 40,000 63 Level FlightAware
Thu 10:27:03 PM 49.6390 31.9850 286° West 477 549 40,100  Climbing FlightAware
Thu 10:27:38 PM 49.6560 31.8840 285° West 476 548 40,000 -80 Descending FlightAware
Thu 10:28:18 PM 49.6830 31.7420 286° West 471 542 40,000  Level FlightAware
Thu 10:29:08 PM 49.7110 31.5900 286° West 469 540 40,000 71 Level FlightAware
Thu 10:29:43 PM 49.7330 31.4760 287° West 469 540 40,100 75 Climbing FlightAware
Thu 10:30:28 PM 49.7610 31.3240 286° West 469 540 40,100 57 Level FlightAware
Thu 10:31:28 PM 49.7970 31.1330 286° West 469 540 40,200 63 Climbing FlightAware
Thu 10:32:03 PM 49.8180 31.0180 286° West 469 540 40,200 71 Level FlightAware
Thu 10:32:53 PM 49.8460 30.8660 286° West 469 540 40,300 63 Climbing FlightAware
Thu 10:33:38 PM 49.8750 30.7130 286° West 469 540 40,300  Level FlightAware
Thu 10:34:13 PM 49.8950 30.6010 286° West 469 540 40,300  Level FlightAware
Thu 10:34:53 PM 49.9160 30.4910 287° West 469 540 40,300  Level FlightAware
Thu 10:35:33 PM 49.9360 30.3810 286° West 469 540 40,300  Level FlightAware
Thu 10:36:23 PM 49.9610 30.2430 286° West 469 540 40,300  Level FlightAware
Thu 10:37:03 PM 49.9820 30.1320 286° West 469 540 40,300  Level FlightAware
Thu 10:37:43 PM 50.0020 30.0220 286° West 469 540 40,300  Level FlightAware
Thu 10:38:23 PM 50.0220 29.9120 286° West 469 540 40,300  Level FlightAware
Thu 10:39:13 PM 50.0480 29.7740 286° West 469 540 40,300  Level FlightAware
Thu 10:39:53 PM 50.0680 29.6630 286° West 469 540 40,300  Level FlightAware
Thu 10:40:33 PM 50.0880 29.5530 286° West 469 540 40,300  Level FlightAware
Thu 10:41:13 PM 50.1090 29.4420 286° West 469 540 40,300  Level FlightAware
Thu 10:41:53 PM 50.1290 29.3320 286° West 469 540 40,300  Level FlightAware
Thu 10:42:43 PM 50.1550 29.1930 286° West 469 540 40,300  Level FlightAware
Thu 10:43:23 PM 50.1750 29.0830 286° West 469 540 40,300 -144 Level FlightAware
Thu 10:44:03 PM 50.2040 28.7250 277° West 40,000 -212 Descending FlightAware
Thu 10:44:48 PM 50.2270 28.5840 284° West 457 526 40,000  Level FlightAware
Thu 10:45:33 PM 50.2460 28.4540 283° West 456 525 40,000  Level FlightAware
Thu 10:46:03 PM 50.2580 28.3720 283° West 456 525 40,000  Level FlightAware
Thu 10:46:43 PM 50.2840 28.2070 284° West 455 524 40,000  Level FlightAware
Thu 10:47:33 PM 50.3060 28.0650 284° West 452 520 40,000  Level FlightAware
Thu 10:48:18 PM 50.3300 27.9070 283° West 451 519 40,000  Level FlightAware
Thu 10:48:58 PM 50.3460 27.7980 283° West 451 519 40,000  Level FlightAware
Thu 10:49:38 PM 50.3620 27.6900 283° West 451 519 40,000  Level FlightAware
Thu 10:50:23 PM 50.3900 27.5070 284° West 447 514 40,000  Level FlightAware
Thu 10:50:58 PM 50.4050 27.4030 283° West 448 516 40,000  Level FlightAware
Thu 10:51:58 PM 50.4310 27.2150 282° West 450 518 40,000  Level FlightAware
Thu 10:52:53 PM 50.4570 27.0410 283° West 452 520 40,000  Level FlightAware
Thu 10:53:38 PM 50.4780 26.8930 283° West 454 522 40,000  Level FlightAware
Thu 10:54:23 PM 50.4990 26.7450 283° West 453 521 40,000  Level FlightAware
Thu 10:54:58 PM 50.5130 26.6410 282° West 453 521 40,000  Level FlightAware
Thu 10:55:48 PM 50.5340 26.4870 282° West 457 526 40,000  Level FlightAware
Thu 10:56:28 PM 50.5550 26.3380 283° West 452 520 40,000  Level FlightAware
Thu 10:57:08 PM 50.5710 26.2170 282° West 454 522 40,000  Level FlightAware
Thu 10:57:53 PM 50.5900 26.0730 282° West 456 525 40,000  Level FlightAware
Thu 10:58:48 PM 50.6140 25.8910 282° West 454 522 40,000  Level FlightAware
Thu 10:59:43 PM 50.6380 25.7120 282° West 452 520 40,000  Level FlightAware
Thu 11:00:38 PM 50.6600 25.5390 281° West 451 519 40,000  Level FlightAware
Thu 11:01:23 PM 50.6780 25.3980 281° West 448 516 40,000  Level FlightAware
Thu 11:02:03 PM 50.6950 25.2560 281° West 443 510 40,000  Level FlightAware
Thu 11:02:43 PM 50.7090 25.1450 281° West 440 506 40,000  Level FlightAware
Thu 11:03:28 PM 50.7290 24.9880 281° West 443 510 40,000  Level FlightAware
Thu 11:04:08 PM 50.7430 24.8720 281° West 445 512 40,000  Level FlightAware
Thu 11:04:48 PM 50.7600 24.7330 281° West 445 512 40,000  Level FlightAware
Thu 11:05:48 PM 50.7820 24.5510 281° West 449 517 40,000  Level FlightAware
Thu 11:06:28 PM 50.7970 24.4190 280° West 449 517 40,000  Level FlightAware
Thu 11:07:13 PM 50.8140 24.2790 281° West 447 514 40,000  Level FlightAware
Thu 11:08:33 PM 50.8380 24.0150 278° West 452 520 40,000  Level FlightAware
Thu 11:09:33 PM 50.8520 23.8190 277° West 452 520 40,000  Level FlightAware
Thu 11:10:13 PM 50.8610 23.6860 276° West 451 519 40,000  Level FlightAware
Thu 11:10:53 PM 50.8700 23.5690 277° West 449 517 40,000  Level FlightAware
Thu 11:11:38 PM 50.8810 23.4050 276° West 449 517 40,000  Level FlightAware
Thu 11:12:33 PM 50.8930 23.2420 277° West 450 518 40,000  Level FlightAware
Thu 11:13:13 PM 50.9020 23.1080 276° West 452 520 40,000  Level FlightAware
Thu 11:13:53 PM 50.9110 22.9650 276° West 454 522 40,000  Level FlightAware
Thu 11:14:38 PM 50.9200 22.8260 276° West 452 520 40,000  Level FlightAware
Thu 11:15:13 PM 50.9280 22.7010 276° West 451 519 40,000  Level FlightAware
Thu 11:16:03 PM 50.9380 22.5430 276° West 453 521 40,000  Level FlightAware
Thu 11:16:43 PM 50.9470 22.4000 276° West 455 524 40,000  Level FlightAware
Thu 11:17:28 PM 50.9560 22.2490 275° West 456 525 40,000  Level FlightAware
Thu 11:18:08 PM 50.9640 22.1110 275° West 450 518 40,000  Level FlightAware
Thu 11:18:53 PM 50.9720 21.9770 275° West 447 514 40,000  Level FlightAware
Thu 11:19:33 PM 50.9800 21.8350 275° West 449 517 40,000  Level FlightAware
Thu 11:20:13 PM 50.9870 21.7110 275° West 450 518 40,000  Level FlightAware
Thu 11:20:58 PM 50.9950 21.5600 275° West 449 517 40,000  Level FlightAware
Thu 11:21:38 PM 51.0020 21.4290 275° West 448 516 40,000  Level FlightAware
Thu 11:22:18 PM 51.0090 21.2930 275° West 450 518 40,000  Level FlightAware
Thu 11:23:03 PM 51.0160 21.1540 275° West 451 519 40,000  Level FlightAware
Thu 11:23:43 PM 51.0220 21.0210 274° West 449 517 40,000  Level FlightAware
Thu 11:24:28 PM 51.0300 20.8720 275° West 446 513 40,000  Level FlightAware
Thu 11:25:08 PM 51.0360 20.7470 274° West 445 512 40,000  Level FlightAware
Thu 11:25:53 PM 51.0420 20.6020 274° West 443 510 40,000  Level FlightAware
Thu 11:26:33 PM 51.0480 20.4710 274° West 439 505 40,000  Level FlightAware
Thu 11:27:13 PM 51.0540 20.3380 274° West 437 503 40,000  Level FlightAware
Thu 11:27:58 PM 51.0600 20.1950 274° West 439 505 40,000  Level FlightAware
Thu 11:28:38 PM 51.0650 20.0660 274° West 440 506 40,000  Level FlightAware
Thu 11:29:23 PM 51.0710 19.9230 274° West 441 507 40,000  Level FlightAware
Thu 11:30:03 PM 51.0760 19.7940 274° West 440 506 40,000  Level FlightAware
Thu 11:30:43 PM 51.0810 19.6660 274° West 441 507 40,000  Level FlightAware
Thu 11:31:28 PM 51.0860 19.5210 273° West 440 506 40,000  Level FlightAware
Thu 11:32:08 PM 51.0910 19.3880 273° West 436 502 40,000  Level FlightAware
Thu 11:32:53 PM 51.0960 19.2410 273° West 432 497 40,000  Level FlightAware
Thu 11:33:33 PM 51.1000 19.1140 273° West 434 499 40,000  Level FlightAware
Thu 11:34:13 PM 51.1040 18.9870 273° West 435 501 40,000  Level FlightAware
Thu 11:34:58 PM 51.1080 18.8480 273° West 435 501 40,000  Level FlightAware
Thu 11:35:38 PM 51.1120 18.7210 273° West 433 498 40,000  Level FlightAware
Thu 11:36:23 PM 51.1160 18.5770 273° West 433 498 40,000  Level FlightAware
Thu 11:37:03 PM 51.1200 18.4560 273° West 433 498 40,000  Level FlightAware
Thu 11:37:48 PM 51.1240 18.3010 272° West 436 502 40,000  Level FlightAware
Thu 11:38:28 PM 51.1270 18.1710 272° West 438 504 40,000  Level FlightAware
Thu 11:39:08 PM 51.1300 18.0470 272° West 437 503 40,000  Level FlightAware
Thu 11:39:53 PM 51.1330 17.9040 272° West 438 504 40,000  Level FlightAware
Thu 11:40:33 PM 51.1360 17.7760 272° West 437 503 40,000  Level FlightAware
Thu 11:41:13 PM 51.1380 17.6470 271° West 437 503 40,000  Level FlightAware
Thu 11:41:58 PM 51.1410 17.4990 272° West 436 502 40,000  Level FlightAware
Thu 11:42:38 PM 51.1430 17.3780 272° West 435 501 40,000  Level FlightAware
Thu 11:43:18 PM 51.1460 17.2480 272° West 436 502 40,000  Level FlightAware
Thu 11:44:03 PM 51.1480 17.0990 271° West 439 505 40,000  Level FlightAware
Thu 11:44:43 PM 51.1500 16.9750 272° West 440 506 40,000  Level FlightAware
Thu 11:45:28 PM 51.1520 16.8280 271° West 440 506 40,000  Level FlightAware
Thu 11:46:08 PM 51.1530 16.7000 271° West 443 510 40,000  Level FlightAware
Thu 11:46:48 PM 51.1550 16.5770 272° West 443 510 40,000  Level FlightAware
Thu 11:47:33 PM 51.1560 16.4200 271° West 443 510 40,000  Level FlightAware
Thu 11:48:13 PM 51.1570 16.2960 271° West 442 509 40,000  Level FlightAware
Thu 11:48:58 PM 51.1590 16.1520 271° West 439 505 40,000  Level FlightAware
Thu 11:49:38 PM 51.1590 16.0170 270° West 441 507 40,000  Level FlightAware
Thu 11:50:18 PM 51.1600 15.8940 271° West 444 511 40,000  Level FlightAware
Thu 11:51:03 PM 51.1610 15.7400 271° West 443 510 40,000  Level FlightAware
Thu 11:51:43 PM 51.1610 15.6190 270° West 444 511 40,000  Level FlightAware
Thu 11:52:23 PM 51.1610 15.4830 270° West 447 514 40,000  Level FlightAware
Thu 11:53:08 PM 51.1610 15.3370 270° West 449 517 40,000  Level FlightAware
Thu 11:53:48 PM 51.1610 15.1990 270° West 450 518 40,000  Level FlightAware
Thu 11:54:33 PM 51.1610 15.0500 270° West 448 516 40,000  Level FlightAware
Thu 11:55:13 PM 51.1610 14.9180 270° West 446 513 40,000  Level FlightAware
Thu 11:55:53 PM 51.1600 14.7890 269° West 444 511 40,000  Level FlightAware
Thu 11:56:38 PM 51.1590 14.6430 269° West 444 511 40,000  Level FlightAware
Thu 11:57:18 PM 51.1580 14.5140 269° West 444 511 40,000  Level FlightAware
Thu 11:57:58 PM 51.1580 14.3910 270° West 445 512 40,000  Level FlightAware
Thu 11:58:43 PM 51.1560 14.2390 269° West 446 513 40,000  Level FlightAware
Thu 11:59:23 PM 51.1440 14.1030 262° West 446 513 40,000  Level FlightAware
Fri 12:00:08 AM 51.1260 13.9670 258° West 444 511 40,000  Level FlightAware
Fri 12:00:48 AM 51.1080 13.8340 258° West 443 510 40,000  Level FlightAware
Fri 12:01:23 AM 51.0930 13.7230 258° West 443 510 40,000  Level FlightAware
Fri 12:02:08 AM 51.0740 13.5780 258° West 445 512 40,000  Level FlightAware
Fri 12:02:48 AM 51.0570 13.4540 258° West 446 513 40,000  Level FlightAware
Fri 12:03:28 AM 51.0390 13.3260 257° West 446 513 40,000  Level FlightAware
Fri 12:04:13 AM 51.0180 13.1760 258° West 445 512 40,000  Level FlightAware
Fri 12:04:53 AM 51.0010 13.0570 257° West 444 511 40,000  Level FlightAware
Fri 12:05:38 AM 50.9810 12.9160 257° West 442 509 40,000  Level FlightAware
Fri 12:06:18 AM 50.9620 12.7830 257° West 443 510 40,000  Level FlightAware
Fri 12:06:58 AM 50.9440 12.6560 257° West 442 509 40,000  Level FlightAware
Fri 12:07:43 AM 50.9240 12.5180 257° West 440 506 40,000  Level FlightAware
Fri 12:08:23 AM 50.9050 12.3940 256° West 437 503 40,000  Level FlightAware
Fri 12:09:08 AM 50.8850 12.2540 257° West 434 499 40,000  Level FlightAware
Fri 12:09:48 AM 50.8660 12.1270 257° West 431 496 40,000  Level FlightAware
Fri 12:10:33 AM 50.8450 11.9920 256° West 432 497 40,000  Level FlightAware
Fri 12:11:13 AM 50.8270 11.8690 257° West 435 501 40,000  Level FlightAware
Fri 12:11:58 AM 50.8060 11.7330 256° West 435 501 40,000  Level FlightAware
Fri 12:12:43 AM 50.7840 11.5930 256° West 434 499 40,000  Level FlightAware
Fri 12:13:23 AM 50.7660 11.4800 256° West 435 501 40,000  Level FlightAware
Fri 12:14:03 AM 50.7450 11.3470 256° West 436 502 40,000  Level FlightAware
Fri 12:14:48 AM 50.7230 11.2070 256° West 435 501 40,000  Level FlightAware
Fri 12:15:28 AM 50.7030 11.0820 256° West 436 502 40,000  Level FlightAware
Fri 12:16:13 AM 50.6820 10.9470 256° West 435 501 40,000  Level FlightAware
Fri 12:16:53 AM 50.6620 10.8280 255° West 435 501 40,000  Level FlightAware
Fri 12:17:33 AM 50.6420 10.7020 256° West 435 501 40,000  Level FlightAware
Fri 12:18:18 AM 50.6180 10.5610 255° West 437 503 40,000  Level FlightAware
Fri 12:18:58 AM 50.5980 10.4370 256° West 439 505 40,000  Level FlightAware
Fri 12:19:43 AM 50.5750 10.3010 255° West 439 505 40,000  Level FlightAware
Fri 12:20:18 AM 50.5570 10.1920 255° West 437 503 40,000  Level FlightAware
Fri 12:21:08 AM 50.5370 10.0760 255° West 435 501 40,000  Level FlightAware
Fri 12:21:48 AM 50.5150 9.9490 255° West 437 503 40,000  Level FlightAware
Fri 12:22:23 AM 50.4960 9.8380 255° West 439 505 40,000  Level FlightAware
Fri 12:23:13 AM 50.4690 9.6800 255° West 440 506 40,000  Level FlightAware
Fri 12:23:48 AM 50.4490 9.5680 254° West 442 509 40,000  Level FlightAware
Fri 12:24:33 AM 50.4270 9.4410 255° West 444 511 40,000  Level FlightAware
Fri 12:25:18 AM 50.4020 9.2980 255° West 447 514 40,000  Level FlightAware
Fri 12:25:58 AM 50.3800 9.1720 255° West 449 517 40,000  Level FlightAware
Fri 12:26:43 AM 50.3540 9.0280 254° West 448 516 40,000  Level FlightAware
Fri 12:27:18 AM 50.3350 8.9250 254° West 449 517 40,000  Level FlightAware
Fri 12:28:03 AM 50.3090 8.7820 254° West 451 519 40,000  Level FlightAware
Fri 12:28:43 AM 50.2860 8.6580 254° West 453 521 40,000  Level FlightAware
Fri 12:29:23 AM 50.2650 8.5410 254° West 452 520 40,000  Level FlightAware
Fri 12:30:13 AM 50.2360 8.3850 254° West 451 519 40,000  Level FlightAware
Fri 12:30:53 AM 50.2100 8.2480 254° West 450 518 40,000  Level FlightAware
Fri 12:31:33 AM 50.1880 8.1320 254° West 451 519 40,000  Level FlightAware
Fri 12:32:13 AM 50.1640 8.0070 253° West 449 517 40,000  Level FlightAware
Fri 12:32:53 AM 50.1400 7.8790 254° West 450 518 40,000  Level FlightAware
Fri 12:33:43 AM 50.1100 7.7230 253° West 448 516 40,000  Level FlightAware
Fri 12:34:13 AM 50.0930 7.6400 252° West 450 518 40,000  Level FlightAware
Fri 12:35:03 AM 50.0620 7.4780 253° West 451 519 40,000  Level FlightAware
Fri 12:35:48 AM 50.0340 7.3380 253° West 449 517 40,000  Level FlightAware
Fri 12:36:23 AM 50.0130 7.2310 253° West 454 522 40,000  Level FlightAware
Fri 12:37:08 AM 49.9870 7.0980 253° West 458 527 40,000  Level FlightAware
Fri 12:37:53 AM 49.9580 6.9570 252° West 457 526 40,000  Level FlightAware
Fri 12:38:48 AM 49.9250 6.7930 253° West 457 526 40,000  Level FlightAware
Fri 12:39:48 AM 49.8810 6.5760 253° West 449 517 40,000  Level FlightAware
Fri 12:40:23 AM 49.8590 6.4710 252° West 452 520 40,000 -375 Level FlightAware
Fri 12:41:08 AM 49.8320 6.3370 253° West 440 506 39,500 -1,050 Descending FlightAware
Fri 12:41:43 AM 49.8090 6.2290 252° West 436 502 38,600 -1,400 Descending FlightAware
Fri 12:42:38 AM 49.7780 6.0800 252° West 440 506 37,400 -1,461 Descending FlightAware
Fri 12:43:38 AM 49.7370 5.8850 252° West 444 511 35,800 -1,636 Descending FlightAware
Fri 12:44:28 AM 49.7030 5.7270 252° West 437 503 34,400 -1,600 Descending FlightAware
Fri 12:45:23 AM 49.6670 5.5610 252° West 442 509 33,000 -1,800 Descending FlightAware
Fri 12:45:58 AM 49.6450 5.4570 252° West 427 491 31,700 -2,400 Descending FlightAware
Fri 12:46:48 AM 49.6140 5.3140 252° West 415 478 29,600 -2,333 Descending FlightAware
Fri 12:47:28 AM 49.5990 5.2040 258° West 409 471 28,200 -1,200 Descending FlightAware
Fri 12:48:08 AM 49.5880 5.0810 262° West 409 471 28,000 -141 Descending FlightAware
Fri 12:48:53 AM 49.5770 4.9550 262° West 407 468 28,000  Level FlightAware
Fri 12:49:33 AM 49.5660 4.8430 261° West 408 470 28,000  Level FlightAware
Fri 12:50:18 AM 49.5550 4.7140 263° West 408 470 28,000  Level FlightAware
Fri 12:50:58 AM 49.5440 4.5970 262° West 410 472 28,000  Level FlightAware
Fri 12:51:38 AM 49.5330 4.4830 262° West 410 472 28,000 -918 Level FlightAware
Fri 12:52:23 AM 49.5210 4.3500 262° West 400 460 26,700 -2,047 Descending FlightAware
Fri 12:53:03 AM 49.5100 4.2390 261° West 392 451 25,100 -3,106 Descending FlightAware
Fri 12:53:48 AM 49.4990 4.1190 262° West 379 436 22,300 -3,812 Descending FlightAware
Fri 12:54:28 AM 49.4890 4.0160 262° West 362 417 19,700 -3,900 Descending FlightAware
Fri 12:55:08 AM 49.4790 3.9160 261° West 347 399 17,100 -3,600 Descending FlightAware
Fri 12:55:53 AM 49.4680 3.8070 261° West 324 373 14,600 -2,965 Descending FlightAware
Fri 12:56:33 AM 49.4590 3.7150 261° West 313 360 12,900 -2,329 Descending FlightAware
Fri 12:57:18 AM 49.4490 3.6210 261° West 312 359 11,300 -1,976 Descending FlightAware
Fri 12:57:58 AM 49.4340 3.5350 255° West 303 349 10,100 -1,292 Descending FlightAware
Fri 12:58:23 AM 49.4250 3.4820 255° West 284 327 9,900 -600 Descending FlightAware
Fri 12:58:38 AM 49.4180 3.4560 248° West 274 315 9,700 -800 Descending FlightAware
Fri 12:58:53 AM 49.4030 3.4360 221° Southwest 266 306 9,500 -600 Descending FlightAware
Fri 12:59:08 AM 49.3880 3.4250 206° Southwest 257 296 9,400 -933 Descending FlightAware
Fri 12:59:38 AM 49.3570 3.3980 210° Southwest 254 292 8,800 -1,418 Descending FlightAware
Fri 01:00:03 AM 49.3310 3.3750 210° Southwest 254 292 8,100 -1,527 Descending FlightAware
Fri 01:00:33 AM 49.3010 3.3490 209° Southwest 253 291 7,400 -1,309 Descending FlightAware
Fri 01:00:58 AM 49.2750 3.3260 210° Southwest 247 284 6,900 -1,200 Descending FlightAware
Fri 01:01:28 AM 49.2490 3.2970 216° Southwest 240 276 6,300 -1,300 Descending FlightAware
Fri 01:01:58 AM 49.2270 3.2590 228° Southwest 235 270 5,600 -1,350 Descending FlightAware
Fri 01:02:08 AM 49.2190 3.2440 231° Southwest 233 268 5,400 -450 Descending FlightAware
Fri 01:02:38 AM 49.1990 3.2100 228° Southwest 228 262 5,300 -100 Descending FlightAware
Fri 01:03:08 AM 49.1780 3.1740 228° Southwest 226 260 5,300  Level FlightAware
Fri 01:03:33 AM 49.1620 3.1450 230° Southwest 226 260 5,300  Level FlightAware
Fri 01:03:53 AM 49.1480 3.1200 229° Southwest 206 237 5,300  Level FlightAware
Fri 01:04:28 AM 49.1290 3.0850 230° Southwest 194 223 5,300  Level FlightAware
Fri 01:04:58 AM 49.1100 3.0520 229° Southwest 193 222 5,300  Level FlightAware
Fri 01:05:28 AM 49.0930 3.0200 231° Southwest 186 214 5,300  Level FlightAware
Fri 01:05:53 AM 49.0800 2.9960 230° Southwest 180 207 5,300  Level FlightAware
Fri 01:06:23 AM 49.0640 2.9680 229° Southwest 151 174 5,300  Level FlightAware
Fri 01:06:48 AM 49.0530 2.9490 229° Southwest 151 174 5,300  Level FlightAware
Fri 01:07:03 AM 49.0470 2.9360 235° Southwest 149 171 5,300  Level FlightAware
Fri 01:07:18 AM 49.0450 2.9200 259° West 158 182 5,300  Level FlightAware
Fri 01:07:28 AM 49.0440 2.9080 263° West 160 184 5,300 -764 Level FlightAware
Fri 01:08:13 AM 49.0420 2.8580 267° West 154 177 4,600 -880 Descending FlightAware
Fri 01:08:43 AM 49.0410 2.8260 267° West 153 176 4,200 -873 Descending FlightAware
Fri 01:09:08 AM 49.0390 2.7990 264° West 151 174 3,800 -900 Descending FlightAware
Fri 01:09:23 AM 49.0380 2.7830 265° West 148 170 3,600 -800 Descending FlightAware
Fri 01:09:53 AM 49.0366 2.7496 266° West 149 171 3,200 -766 Descending FlightAware
Fri 01:10:10 AM 49.0357 2.7323 265° West 149 171 3,000 -789 Descending FlightAware
Fri 01:10:31 AM 49.0346 2.7107 266° West 144 166 2,700 -923 Descending FlightAware
Fri 01:10:49 AM 49.0336 2.6919 265° West 146 168 2,400 -727 Descending FlightAware
Fri 01:11:04 AM 49.0328 2.6764 266° West 149 171 2,300 -621 Descending FlightAware
Fri 01:11:18 AM 49.0321 2.6619 266° West 138 159 2,100 -774 Descending FlightAware
Fri 01:11:35 AM 49.0312 2.6467 265° West 129 148 1,900 -750 Descending FlightAware
Fri 01:11:50 AM 49.0305 2.6333 265° West 123 142 1,700 -900 Descending FlightAware
Fri 01:11:55 AM 49.0303 2.6288 266° West 124 143 1,600 -750 Descending FlightAware
Fri 01:12:06 AM 49.0298 2.6194 265° West 122 140 1,500 -667 Descending FlightAware
Fri 01:12:13 AM 49.0294 2.6129 265° West 128 147 1,400 -545 Descending FlightAware
Fri 01:12:28 AM 49.0287 2.5993 266° West 126 145 1,300 -600 Descending FlightAware
Fri 01:12:43 AM 49.0280 2.5862 265° West 127 146 1,100 -750 Descending FlightAware
Fri 01:12:52 AM 49.0277 2.5780 267° West 128 147 1,000 -667 Descending FlightAware
Fri 01:13:01 AM 49.0271 2.5704 263° West 130 150 900 -667 Descending FlightAware

Login

Don't have an account? Register now (free) for customized features, flight alerts, and more!